createdAt,value
2018-02-13T00:00:06.405Z,1.45
2018-02-13T00:02:34.741Z,1.42
2018-02-13T00:05:03.128Z,1.37
2018-02-13T00:07:31.455Z,1.42
2018-02-13T00:09:59.809Z,1.53
2018-02-13T00:12:28.148Z,1.42
2018-02-13T00:14:56.507Z,1.35
2018-02-13T00:17:24.809Z,1.48
2018-02-13T00:19:53.123Z,1.47
2018-02-13T00:22:21.466Z,1.38
2018-02-13T00:24:49.783Z,1.40
2018-02-13T00:27:18.094Z,1.44
2018-02-13T00:29:46.434Z,1.43
2018-02-13T00:32:14.782Z,1.44
2018-02-13T00:34:43.076Z,1.55
2018-02-13T00:37:11.397Z,1.46
2018-02-13T00:39:39.725Z,1.45
2018-02-13T00:42:08.027Z,1.41
2018-02-13T00:44:36.374Z,1.45
2018-02-13T00:47:04.710Z,1.39
2018-02-13T00:49:33.044Z,1.35
2018-02-13T00:52:01.361Z,1.33
2018-02-13T00:54:29.709Z,1.36
2018-02-13T00:56:58.013Z,1.48
2018-02-13T00:59:26.349Z,1.48
2018-02-13T01:01:54.687Z,1.44
2018-02-13T01:04:23.137Z,1.44
2018-02-13T01:06:51.496Z,1.45
2018-02-13T01:09:19.811Z,1.52
2018-02-13T01:11:48.155Z,1.46
2018-02-13T01:14:16.476Z,1.48
2018-02-13T01:16:44.793Z,1.58
2018-02-13T01:19:13.139Z,1.56
2018-02-13T01:21:41.441Z,1.53
2018-02-13T01:24:16.813Z,1.52
2018-02-13T01:26:45.141Z,1.55
2018-02-13T01:29:13.455Z,1.63
2018-02-13T01:31:41.830Z,1.72
2018-02-13T01:34:10.186Z,1.73
2018-02-13T01:36:38.565Z,1.75
2018-02-13T01:39:06.869Z,1.84
2018-02-13T01:41:35.193Z,1.83
2018-02-13T01:44:03.535Z,1.89
2018-02-13T01:46:31.849Z,1.91
2018-02-13T01:49:00.238Z,1.82
2018-02-13T01:51:28.553Z,1.85
2018-02-13T01:53:56.863Z,1.80
2018-02-13T01:56:25.239Z,1.74
2018-02-13T01:58:53.570Z,1.71
2018-02-13T02:01:21.927Z,1.79
2018-02-13T02:03:50.246Z,1.72
2018-02-13T02:06:18.578Z,1.54
2018-02-13T02:08:46.907Z,1.46
2018-02-13T02:11:15.273Z,1.21
2018-02-13T02:13:43.625Z,1.14
2018-02-13T02:16:11.937Z,1.11
2018-02-13T02:18:40.237Z,1.15
2018-02-13T02:21:08.550Z,1.11
2018-02-13T02:23:36.895Z,1.11
2018-02-13T02:26:05.236Z,1.12
2018-02-13T02:28:33.566Z,1.16
2018-02-13T02:31:01.890Z,1.21
2018-02-13T02:33:30.240Z,1.19
2018-02-13T02:35:58.574Z,1.16
2018-02-13T02:38:26.938Z,1.09
2018-02-13T02:40:55.283Z,1.10
2018-02-13T02:43:23.591Z,1.02
2018-02-13T02:45:51.983Z,0.99
2018-02-13T02:48:20.288Z,0.94
2018-02-13T02:50:48.620Z,0.89
2018-02-13T02:53:16.929Z,0.98
2018-02-13T02:55:45.254Z,1.00
2018-02-13T02:58:13.587Z,1.02
2018-02-13T03:00:41.907Z,1.04
2018-02-13T03:03:10.253Z,1.06
2018-02-13T03:05:38.581Z,1.04
2018-02-13T03:08:06.961Z,1.17
2018-02-13T03:10:35.302Z,1.27
2018-02-13T03:13:03.664Z,1.50
2018-02-13T03:15:32.087Z,1.63
2018-02-13T03:18:00.409Z,1.70
2018-02-13T03:20:28.744Z,1.60
2018-02-13T03:22:57.069Z,1.54
2018-02-13T03:25:25.376Z,1.66
2018-02-13T03:27:53.781Z,1.74
2018-02-13T03:30:22.150Z,1.74
2018-02-13T03:32:50.474Z,1.73
2018-02-13T03:35:18.808Z,1.68
2018-02-13T03:37:47.110Z,1.67
2018-02-13T03:40:15.561Z,1.65
2018-02-13T03:42:43.886Z,1.56
2018-02-13T03:45:12.205Z,1.50
2018-02-13T03:47:40.534Z,1.43
2018-02-13T03:50:08.858Z,1.33
2018-02-13T03:52:37.204Z,1.28
2018-02-13T03:55:05.514Z,1.28
2018-02-13T03:57:33.836Z,1.22
2018-02-13T04:00:02.203Z,1.28
2018-02-13T04:02:30.608Z,1.41
2018-02-13T04:04:58.909Z,1.26
2018-02-13T04:07:27.269Z,1.17
2018-02-13T04:09:55.568Z,1.16
2018-02-13T04:12:23.889Z,1.11
2018-02-13T04:14:52.253Z,1.11
2018-02-13T04:17:20.606Z,1.12
2018-02-13T04:19:48.930Z,1.37
2018-02-13T04:22:17.256Z,1.33
2018-02-13T04:24:45.802Z,1.32
2018-02-13T04:27:14.691Z,1.34
2018-02-13T04:29:42.990Z,1.34
2018-02-13T04:32:11.397Z,1.43
2018-02-13T04:34:39.735Z,1.46
2018-02-13T04:37:08.067Z,1.31
2018-02-13T04:39:36.371Z,1.22
2018-02-13T04:42:04.733Z,1.30
2018-02-13T04:44:33.068Z,1.32
2018-02-13T04:47:01.397Z,1.39
2018-02-13T04:49:29.726Z,1.42
2018-02-13T04:54:33.200Z,1.51
2018-02-13T04:57:02.278Z,1.53
2018-02-13T04:59:30.739Z,1.63
2018-02-13T05:01:59.097Z,1.57
2018-02-13T05:04:27.440Z,1.56
2018-02-13T05:06:55.930Z,1.52
2018-02-13T05:09:24.403Z,1.50
2018-02-13T05:11:52.698Z,1.50
2018-02-13T05:14:20.996Z,1.51
2018-02-13T05:16:50.255Z,1.56
2018-02-13T05:19:18.618Z,1.70
2018-02-13T05:21:46.902Z,1.68
2018-02-13T05:24:15.259Z,1.63
2018-02-13T05:26:43.568Z,1.63
2018-02-13T05:29:11.921Z,1.66
2018-02-13T05:31:40.254Z,1.57
2018-02-13T05:34:08.586Z,1.43
2018-02-13T05:36:36.907Z,1.42
2018-02-13T05:39:05.272Z,1.39
2018-02-13T05:41:33.595Z,1.40
2018-02-13T05:44:01.913Z,1.54
2018-02-13T05:46:30.344Z,1.58
2018-02-13T05:48:58.774Z,1.46
2018-02-13T05:51:27.147Z,1.43
2018-02-13T05:53:55.601Z,1.39
2018-02-13T05:56:23.938Z,1.45
2018-02-13T05:58:52.261Z,1.43
2018-02-13T06:01:20.716Z,1.41
2018-02-13T06:03:49.064Z,1.33
2018-02-13T06:06:17.396Z,1.22
2018-02-13T06:08:45.720Z,1.30
2018-02-13T06:11:14.027Z,1.20
2018-02-13T06:13:42.430Z,1.22
2018-02-13T06:16:10.942Z,1.31
2018-02-13T06:18:39.293Z,1.26
2018-02-13T06:21:08.683Z,1.31
2018-02-13T06:23:37.040Z,1.34
2018-02-13T06:26:05.438Z,1.38
2018-02-13T06:28:34.004Z,1.56
2018-02-13T06:31:03.495Z,1.48
2018-02-13T06:33:31.949Z,1.50
2018-02-13T06:36:00.291Z,1.62
2018-02-13T06:38:29.240Z,1.75
2018-02-13T06:40:57.584Z,1.84
2018-02-13T06:43:25.907Z,1.91
2018-02-13T06:45:54.251Z,1.64
2018-02-13T06:48:22.581Z,1.39
2018-02-13T06:50:50.904Z,1.30
2018-02-13T06:53:19.263Z,1.42
2018-02-13T06:55:48.691Z,1.70
2018-02-13T06:58:17.045Z,1.66
2018-02-13T07:00:43.808Z,1.95
2018-02-13T07:03:11.310Z,2.29
2018-02-13T07:05:38.003Z,2.37
2018-02-13T07:08:04.775Z,2.46
2018-02-13T07:10:32.158Z,2.77
2018-02-13T07:12:58.806Z,2.74
2018-02-13T07:15:25.470Z,2.52
2018-02-13T07:17:52.147Z,2.51
2018-02-13T07:20:19.546Z,2.69
2018-02-13T07:22:46.234Z,2.76
2018-02-13T07:25:13.671Z,2.61
2018-02-13T07:27:40.369Z,2.80
2018-02-13T07:30:07.083Z,3.11
2018-02-13T07:32:34.568Z,3.01
2018-02-13T07:35:01.980Z,3.31
2018-02-13T07:37:28.657Z,3.49
2018-02-13T07:39:56.068Z,3.77
2018-02-13T07:42:22.770Z,3.98
2018-02-13T07:44:50.176Z,4.05
2018-02-13T07:47:16.892Z,3.74
2018-02-13T07:49:43.573Z,3.68
2018-02-13T07:52:10.230Z,3.73
2018-02-13T07:54:36.910Z,3.78
2018-02-13T07:57:03.602Z,4.02
2018-02-13T07:59:30.294Z,4.28
2018-02-13T08:01:57.006Z,4.16
2018-02-13T08:04:23.690Z,4.27
2018-02-13T08:06:50.365Z,4.52
2018-02-13T08:09:18.708Z,4.69
2018-02-13T08:11:47.034Z,4.80
2018-02-13T08:14:15.422Z,4.63
2018-02-13T08:16:43.777Z,4.22
2018-02-13T08:19:12.106Z,4.40
2018-02-13T08:21:40.606Z,4.53
2018-02-13T08:24:08.926Z,4.95
2018-02-13T08:26:37.245Z,4.55
2018-02-13T08:29:05.668Z,4.21
2018-02-13T08:31:33.992Z,4.52
2018-02-13T08:34:02.330Z,4.84
2018-02-13T08:36:30.662Z,4.81
2018-02-13T08:38:59.019Z,5.38
2018-02-13T08:41:27.354Z,5.28
2018-02-13T08:43:55.672Z,5.34
2018-02-13T08:46:24.072Z,5.52
2018-02-13T08:48:52.401Z,5.60
2018-02-13T08:51:20.751Z,5.97
2018-02-13T08:53:49.098Z,5.79
2018-02-13T08:56:17.470Z,5.96
2018-02-13T08:58:45.858Z,5.99
2018-02-13T09:01:14.184Z,5.86
2018-02-13T09:03:42.681Z,5.81
2018-02-13T09:06:11.002Z,6.41
2018-02-13T09:08:39.351Z,6.42
2018-02-13T09:11:07.727Z,6.42
2018-02-13T09:13:36.077Z,6.42
2018-02-13T09:16:04.429Z,6.13
2018-02-13T09:18:32.774Z,6.04
2018-02-13T09:21:01.142Z,6.29
2018-02-13T09:23:29.602Z,6.51
2018-02-13T09:25:57.997Z,6.33
2018-02-13T09:28:26.344Z,6.22
2018-02-13T09:30:54.674Z,6.56
2018-02-13T09:33:23.043Z,6.32
2018-02-13T09:35:51.365Z,6.59
2018-02-13T09:38:19.838Z,7.04
2018-02-13T09:40:48.230Z,6.65
2018-02-13T09:43:16.568Z,7.17
2018-02-13T09:45:44.957Z,7.06
2018-02-13T09:48:13.383Z,7.06
2018-02-13T09:50:41.732Z,7.19
2018-02-13T09:53:10.117Z,7.49
2018-02-13T09:55:38.433Z,7.48
2018-02-13T09:58:06.800Z,7.38
2018-02-13T10:00:35.149Z,7.22
2018-02-13T10:03:03.495Z,7.64
2018-02-13T10:05:31.858Z,7.87
2018-02-13T10:08:00.193Z,7.73
2018-02-13T10:10:29.589Z,8.17
2018-02-13T10:12:57.974Z,8.27
2018-02-13T10:15:26.433Z,8.53
2018-02-13T10:17:54.874Z,8.43
2018-02-13T10:20:23.270Z,8.75
2018-02-13T10:22:51.706Z,8.59
2018-02-13T10:25:20.119Z,7.89
2018-02-13T10:27:48.436Z,7.31
2018-02-13T10:30:16.788Z,7.49
2018-02-13T10:32:45.169Z,7.77
2018-02-13T10:35:13.478Z,8.07
2018-02-13T10:37:41.839Z,7.87
2018-02-13T10:40:10.172Z,7.91
2018-02-13T10:42:38.504Z,6.93
2018-02-13T10:45:06.877Z,8.01
2018-02-13T10:47:35.365Z,7.21
2018-02-13T10:50:03.759Z,7.45
2018-02-13T10:52:32.158Z,8.02
2018-02-13T10:55:00.561Z,8.77
2018-02-13T10:57:28.902Z,8.84
2018-02-13T10:59:57.244Z,9.17
2018-02-13T11:02:25.699Z,9.21
2018-02-13T11:04:54.020Z,8.55
2018-02-13T11:07:22.414Z,8.53
2018-02-13T11:09:50.785Z,8.03
2018-02-13T11:12:19.149Z,8.96
2018-02-13T11:14:47.581Z,8.63
2018-02-13T11:17:16.001Z,8.43
2018-02-13T11:19:44.493Z,7.91
2018-02-13T11:22:12.870Z,8.19
2018-02-13T11:24:41.250Z,8.36
2018-02-13T11:27:09.599Z,8.20
2018-02-13T11:29:38.022Z,8.18
2018-02-13T11:32:06.342Z,9.09
2018-02-13T11:34:34.672Z,8.40
2018-02-13T11:37:03.048Z,8.41
2018-02-13T11:39:32.502Z,6.76
2018-02-13T11:42:00.881Z,7.11
2018-02-13T11:44:29.268Z,7.19
2018-02-13T11:46:57.624Z,7.66
2018-02-13T11:49:25.991Z,7.59
2018-02-13T11:51:54.329Z,7.73
2018-02-13T11:54:22.684Z,8.19
2018-02-13T11:56:51.076Z,8.38
2018-02-13T11:59:19.451Z,7.66
2018-02-13T12:01:48.075Z,8.07
2018-02-13T12:04:16.485Z,7.82
2018-02-13T12:06:44.862Z,8.11
2018-02-13T12:09:13.211Z,7.83
2018-02-13T12:11:41.537Z,6.41
2018-02-13T12:14:09.885Z,7.11
2018-02-13T12:16:38.230Z,7.55
2018-02-13T12:19:06.552Z,7.04
2018-02-13T12:21:34.869Z,7.39
2018-02-13T12:24:03.198Z,6.91
2018-02-13T12:26:31.549Z,7.07
2018-02-13T12:28:59.896Z,7.32
2018-02-13T12:31:29.356Z,6.42
2018-02-13T12:33:57.738Z,6.42
2018-02-13T12:36:26.143Z,6.08
2018-02-13T12:38:54.525Z,6.40
2018-02-13T12:41:22.915Z,6.22
2018-02-13T12:43:51.251Z,6.42
2018-02-13T12:46:19.599Z,5.46
2018-02-13T12:48:47.893Z,6.05
2018-02-13T12:51:16.256Z,6.17
2018-02-13T12:53:44.680Z,6.42
2018-02-13T12:56:13.079Z,6.55
2018-02-13T12:58:41.501Z,6.53
2018-02-13T13:01:09.893Z,6.57
2018-02-13T13:03:38.315Z,7.06
2018-02-13T13:06:07.601Z,7.14
2018-02-13T13:08:35.938Z,7.22
2018-02-13T13:11:04.493Z,6.99
2018-02-13T13:13:32.860Z,6.55
2018-02-13T13:16:01.258Z,6.65
2018-02-13T13:18:29.637Z,6.52
2018-02-13T13:20:58.041Z,6.14
2018-02-13T13:23:26.424Z,6.05
2018-02-13T13:25:54.778Z,5.84
2018-02-13T13:28:23.245Z,6.07
2018-02-13T13:30:51.629Z,6.13
2018-02-13T13:33:20.067Z,5.90
2018-02-13T13:35:48.457Z,5.90
2018-02-13T13:38:16.824Z,5.75
2018-02-13T13:40:45.239Z,5.84
2018-02-13T13:43:13.583Z,5.74
2018-02-13T13:45:41.949Z,5.79
2018-02-13T13:48:10.329Z,5.78
2018-02-13T13:50:38.686Z,5.97
2018-02-13T13:53:07.187Z,5.68
2018-02-13T13:55:35.545Z,5.66
2018-02-13T13:58:03.937Z,6.05
2018-02-13T14:00:32.506Z,5.96
2018-02-13T14:03:00.888Z,6.16
2018-02-13T14:05:29.482Z,6.27
2018-02-13T14:07:58.255Z,5.93
2018-02-13T14:10:27.909Z,5.28
2018-02-13T14:12:56.320Z,5.40
2018-02-13T14:15:25.764Z,5.51
2018-02-13T14:17:54.148Z,5.04
2018-02-13T14:20:23.580Z,5.06
2018-02-13T14:22:52.014Z,5.20
2018-02-13T14:25:21.239Z,5.26
2018-02-13T14:27:49.772Z,5.32
2018-02-13T14:30:18.262Z,4.98
2018-02-13T14:32:47.776Z,5.05
2018-02-13T14:35:16.140Z,5.24
2018-02-13T14:37:45.179Z,4.83
2018-02-13T14:40:13.556Z,5.09
2018-02-13T14:42:42.239Z,4.95
2018-02-13T14:45:10.590Z,4.87
2018-02-13T14:47:38.952Z,5.00
2018-02-13T14:50:07.317Z,4.94
2018-02-13T14:52:35.658Z,4.84
2018-02-13T14:55:05.093Z,5.03
2018-02-13T14:57:33.449Z,5.03
2018-02-13T15:00:01.880Z,5.03
2018-02-13T15:02:30.389Z,4.95
2018-02-13T15:04:58.768Z,4.90
2018-02-13T15:07:27.173Z,4.98
2018-02-13T15:09:55.557Z,4.89
2018-02-13T15:12:23.948Z,4.88
2018-02-13T15:14:52.329Z,4.78
2018-02-13T15:17:26.698Z,4.68
2018-02-13T15:19:55.081Z,4.56
2018-02-13T15:22:23.421Z,4.77
2018-02-13T15:24:51.816Z,4.58
2018-02-13T15:27:20.215Z,4.58
2018-02-13T15:29:48.578Z,4.58
2018-02-13T15:32:16.915Z,4.50
2018-02-13T15:34:45.279Z,4.48
2018-02-13T15:37:13.578Z,4.39
2018-02-13T15:39:42.752Z,4.26
2018-02-13T15:42:11.112Z,4.19
2018-02-13T15:44:39.433Z,3.98
2018-02-13T15:47:09.637Z,4.01
2018-02-13T15:49:37.968Z,4.05
2018-02-13T15:52:06.345Z,3.85
2018-02-13T15:54:34.714Z,3.80
2018-02-13T15:57:03.098Z,3.67
2018-02-13T15:59:38.578Z,3.51
2018-02-13T16:02:06.968Z,3.31
2018-02-13T16:04:35.309Z,3.22
2018-02-13T16:07:03.693Z,3.24
2018-02-13T16:09:32.009Z,3.03
2018-02-13T16:12:00.598Z,2.95
2018-02-13T16:14:28.024Z,2.90
2018-02-13T16:16:55.432Z,2.86
2018-02-13T16:19:22.734Z,2.82
2018-02-13T16:21:49.608Z,2.82
2018-02-13T16:24:17.650Z,2.80
2018-02-13T16:26:44.376Z,2.65
2018-02-13T16:29:11.046Z,2.66
2018-02-13T16:31:37.750Z,2.53
2018-02-13T16:34:04.481Z,2.49
2018-02-13T16:36:31.260Z,2.60
2018-02-13T16:38:58.088Z,2.57
2018-02-13T16:41:24.801Z,2.43
2018-02-13T16:43:51.517Z,2.47
2018-02-13T16:46:18.986Z,2.56
2018-02-13T16:48:46.470Z,2.64
2018-02-13T16:51:13.202Z,2.50
2018-02-13T16:53:40.658Z,2.57
2018-02-13T16:56:08.145Z,2.51
2018-02-13T16:58:34.921Z,2.47
2018-02-13T17:01:01.763Z,2.45
2018-02-13T17:03:28.694Z,2.42
2018-02-13T17:05:55.636Z,2.36
2018-02-13T17:08:22.343Z,2.33
2018-02-13T17:10:49.807Z,2.35
2018-02-13T17:13:17.314Z,2.38
2018-02-13T17:15:44.027Z,2.42
2018-02-13T17:18:11.731Z,2.41
2018-02-13T17:20:38.463Z,2.35
2018-02-13T17:23:05.167Z,2.28
2018-02-13T17:25:32.611Z,2.30
2018-02-13T17:28:06.331Z,2.25
2018-02-13T17:30:33.836Z,2.18
2018-02-13T17:33:00.633Z,2.11
2018-02-13T17:35:28.168Z,2.05
2018-02-13T17:37:54.897Z,2.08
2018-02-13T17:40:21.570Z,2.21
2018-02-13T17:42:48.451Z,2.02
2018-02-13T17:45:15.973Z,1.84
2018-02-13T17:47:42.740Z,1.66
2018-02-13T17:50:10.309Z,1.80
2018-02-13T17:52:37.730Z,1.78
2018-02-13T17:55:04.467Z,1.63
2018-02-13T17:57:31.171Z,1.54
2018-02-13T17:59:58.706Z,1.51
2018-02-13T18:02:25.561Z,1.43
2018-02-13T18:04:52.460Z,1.36
2018-02-13T18:07:19.309Z,1.31
2018-02-13T18:09:45.990Z,1.34
2018-02-13T18:12:12.758Z,1.29
2018-02-13T18:14:40.213Z,1.28
2018-02-13T18:17:07.755Z,1.32
2018-02-13T18:19:34.862Z,1.27
2018-02-13T18:22:01.557Z,1.10
2018-02-13T18:24:28.316Z,1.15
2018-02-13T18:26:55.769Z,1.13
2018-02-13T18:29:22.521Z,1.06
2018-02-13T18:31:49.991Z,1.01
2018-02-13T18:34:17.625Z,1.00
2018-02-13T18:36:44.437Z,1.02
2018-02-13T18:39:11.988Z,0.95
2018-02-13T18:41:39.794Z,0.95
2018-02-13T18:44:06.691Z,0.92
2018-02-13T18:46:33.455Z,1.06
2018-02-13T18:49:00.306Z,0.92
2018-02-13T18:51:27.118Z,0.86
2018-02-13T18:53:55.523Z,0.93
2018-02-13T18:56:22.311Z,0.84
2018-02-13T18:58:49.177Z,0.62
2018-02-13T19:01:16.041Z,0.46
2018-02-13T19:03:43.474Z,0.51
2018-02-13T19:06:10.254Z,0.54
2018-02-13T19:08:37.038Z,0.38
2018-02-13T19:11:03.771Z,0.29
2018-02-13T19:13:30.506Z,0.21
2018-02-13T19:15:57.501Z,0.08
2018-02-13T19:18:24.346Z,0.02
2018-02-13T19:20:51.436Z,-0.02
2018-02-13T19:23:18.177Z,-0.08
2018-02-13T19:25:44.981Z,-0.05
2018-02-13T19:28:11.714Z,-0.21
2018-02-13T19:30:38.410Z,-0.25
2018-02-13T19:33:05.930Z,-0.32
2018-02-13T19:35:32.709Z,-0.36
2018-02-13T19:38:00.223Z,-0.41
2018-02-13T19:40:26.984Z,-0.48
2018-02-13T19:42:54.312Z,-0.48
2018-02-13T19:45:21.038Z,-0.50
2018-02-13T19:47:48.312Z,-0.52
2018-02-13T19:50:15.172Z,-0.52
2018-02-13T19:52:41.911Z,-0.58
2018-02-13T19:55:08.661Z,-0.60
2018-02-13T19:57:35.481Z,-0.70
2018-02-13T20:00:02.314Z,-0.73
2018-02-13T20:02:29.163Z,-0.77
2018-02-13T20:04:56.644Z,-0.78
2018-02-13T20:07:30.390Z,-0.83
2018-02-13T20:09:57.131Z,-0.92
2018-02-13T20:12:23.822Z,-0.91
2018-02-13T20:14:51.238Z,-0.87
2018-02-13T20:17:17.999Z,-0.88
2018-02-13T20:19:44.754Z,-0.85
2018-02-13T20:22:12.216Z,-0.91
2018-02-13T20:24:40.888Z,-1.01
2018-02-13T20:27:07.652Z,-0.91
2018-02-13T20:29:36.677Z,-1.03
2018-02-13T20:32:03.365Z,-1.02
2018-02-13T20:34:30.229Z,-1.09
2018-02-13T20:36:56.972Z,-1.07
2018-02-13T20:39:23.701Z,-1.07
2018-02-13T20:41:50.426Z,-1.06
2018-02-13T20:44:17.115Z,-1.04
2018-02-13T20:46:44.581Z,-1.02
2018-02-13T20:49:12.096Z,-1.08
2018-02-13T20:51:39.005Z,-1.14
2018-02-13T20:54:05.750Z,-1.13
2018-02-13T20:56:32.566Z,-1.24
2018-02-13T20:58:59.283Z,-1.32
2018-02-13T21:01:26.131Z,-1.40
2018-02-13T21:03:52.937Z,-1.43
2018-02-13T21:06:19.658Z,-1.42
2018-02-13T21:08:47.182Z,-1.43
2018-02-13T21:11:13.996Z,-1.24
2018-02-13T21:13:41.948Z,-1.39
2018-02-13T21:16:09.408Z,-1.51
2018-02-13T21:18:36.954Z,-1.65
2018-02-13T21:21:03.839Z,-1.64
2018-02-13T21:23:30.959Z,-1.73
2018-02-13T21:25:58.434Z,-1.60
2018-02-13T21:28:25.901Z,-1.49
2018-02-13T21:30:53.369Z,-1.67
2018-02-13T21:33:20.823Z,-1.75
2018-02-13T21:35:48.310Z,-1.86
2018-02-13T21:38:15.015Z,-1.96
2018-02-13T21:40:42.554Z,-1.92
2018-02-13T21:43:09.321Z,-2.03
2018-02-13T21:45:40.026Z,-1.96
2018-02-13T21:48:06.701Z,-2.03
2018-02-13T21:50:38.827Z,-1.92
2018-02-13T21:53:10.501Z,-1.94
2018-02-13T21:55:37.377Z,-1.99
2018-02-13T21:58:04.158Z,-2.09
2018-02-13T22:00:30.847Z,-2.03
2018-02-13T22:02:59.622Z,-2.13
2018-02-13T22:05:26.361Z,-2.06
2018-02-13T22:07:53.077Z,-2.06
2018-02-13T22:10:19.774Z,-1.98
2018-02-13T22:12:46.514Z,-1.99
2018-02-13T22:15:14.157Z,-1.86
2018-02-13T22:17:40.858Z,-1.74
2018-02-13T22:20:07.784Z,-1.79
2018-02-13T22:22:34.507Z,-1.86
2018-02-13T22:25:01.220Z,-1.87
2018-02-13T22:27:28.175Z,-1.89
2018-02-13T22:29:54.993Z,-1.80
2018-02-13T22:32:21.687Z,-1.65
2018-02-13T22:34:48.377Z,-1.70
2018-02-13T22:37:15.815Z,-1.77
2018-02-13T22:39:42.678Z,-1.59
2018-02-13T22:42:10.152Z,-1.79
2018-02-13T22:44:36.967Z,-1.80
2018-02-13T22:47:04.451Z,-1.97
2018-02-13T22:49:32.005Z,-2.03
2018-02-13T22:51:58.706Z,-2.08
2018-02-13T22:54:25.493Z,-2.12
2018-02-13T22:56:52.956Z,-1.97
2018-02-13T22:59:20.392Z,-1.93
2018-02-13T23:01:47.003Z,-2.12
2018-02-13T23:04:13.874Z,-2.12
2018-02-13T23:06:40.673Z,-2.12
2018-02-13T23:09:07.595Z,-2.20
2018-02-13T23:11:35.090Z,-2.30
2018-02-13T23:14:01.897Z,-2.27
2018-02-13T23:16:29.376Z,-2.24
2018-02-13T23:18:56.821Z,-2.30
2018-02-13T23:21:24.328Z,-2.34
2018-02-13T23:23:50.983Z,-2.38
2018-02-13T23:26:17.939Z,-2.34
2018-02-13T23:28:44.644Z,-2.41
2018-02-13T23:31:11.315Z,-2.56
2018-02-13T23:33:38.103Z,-2.67
2018-02-13T23:36:05.538Z,-2.72
2018-02-13T23:38:32.395Z,-2.63
2018-02-13T23:40:59.093Z,-2.71
2018-02-13T23:43:25.790Z,-2.72
2018-02-13T23:45:52.593Z,-2.81
2018-02-13T23:48:19.297Z,-2.82
2018-02-13T23:50:46.793Z,-2.91
2018-02-13T23:53:13.497Z,-2.97
2018-02-13T23:55:40.912Z,-2.88
2018-02-13T23:58:07.620Z,-2.86
